Flight Track Log - Related Links

Times and Time Zones

All times are in EDT time to prevent confusion due to time zone crossing. See the SLI2164 flight status page for this flight to view local times or setup timezone preferences in your user account.

Time Position Orientation Groundspeed Altitude Reporting Facility
EDT Latitude Longitude Course Direction KTS MPH feet Rate Location/Type
Sun 09:34:00 AM 20.3638 -100.4456 306° West  Level Estimated
Sun 09:35:00 AM 20.4296 -100.5443 305° West  Level Estimated
Sun 09:36:00 AM 20.4954 -100.6432 305° West  Level Estimated
Sun 09:37:00 AM 20.5611 -100.7421 305° West  Level Estimated
Sun 09:38:00 AM 20.6268 -100.8410 305° West  Level Estimated
Sun 09:39:00 AM 20.6924 -100.9401 305° West  Level Estimated
Sun 09:40:00 AM 20.7579 -101.0393 305° West  Level Estimated
Sun 09:41:00 AM 20.8235 -101.1385 305° West  Level Estimated
Sun 09:42:00 AM 20.8889 -101.2378 305° West  Level Estimated
Sun 09:43:00 AM 20.9543 -101.3372 305° West  Level Estimated
Sun 09:44:00 AM 21.0196 -101.4367 305° West  Level Estimated
Sun 09:45:00 AM 21.0849 -101.5363 305° West  Level Estimated
Sun 09:46:00 AM 21.1501 -101.6360 305° West  Level Estimated
Sun 09:47:00 AM 21.2152 -101.7358 305° West  Level Estimated
Sun 09:48:00 AM 21.2803 -101.8356 305° West  Level Estimated
Sun 09:49:00 AM 21.3454 -101.9356 305° West  Level Estimated
Sun 09:50:00 AM 21.4104 -102.0356 305° West  Level Estimated
Sun 09:51:00 AM 21.4753 -102.1357 305° West  Level Estimated
Sun 09:52:00 AM 21.5401 -102.2359 305° West  Level Estimated
Sun 09:53:00 AM 21.6049 -102.3362 305° West  Level Estimated
Sun 09:54:00 AM 21.6697 -102.4366 305° West  Level Estimated
Sun 09:55:00 AM 21.7344 -102.5371 305° West  Level Estimated
Sun 09:56:00 AM 21.7990 -102.6377 305° West  Level Estimated
Sun 09:57:00 AM 21.8635 -102.7383 305° West  Level Estimated
Sun 09:58:00 AM 21.9280 -102.8391 305° West  Level Estimated
Sun 09:59:00 AM 21.9925 -102.9399 305° West  Level Estimated
Sun 10:00:00 AM 22.0568 -103.0408 305° West  Level Estimated
Sun 10:01:00 AM 22.1211 -103.1419 305° West  Level Estimated
Sun 10:02:00 AM 22.1854 -103.2430 304° West  Level Estimated
Sun 10:03:00 AM 22.2496 -103.3442 304° West  Level Estimated
Sun 10:04:00 AM 22.3137 -103.4455 304° West  Level Estimated
Sun 10:05:00 AM 22.3778 -103.5469 304° West  Level Estimated
Sun 10:06:00 AM 22.4418 -103.6484 304° West  Level Estimated
Sun 10:07:00 AM 22.5057 -103.7499 304° West  Level Estimated
Sun 10:08:00 AM 22.5696 -103.8516 304° West  Level Estimated
Sun 10:09:00 AM 22.6334 -103.9534 304° West  Level Estimated
Sun 10:10:00 AM 22.6971 -104.0553 304° West  Level Estimated
Sun 10:11:00 AM 22.7608 -104.1572 304° West  Level Estimated
Sun 10:12:00 AM 22.8244 -104.2593 304° West  Level Estimated
Sun 10:13:00 AM 22.8880 -104.3614 304° West  Level Estimated
Sun 10:14:00 AM 22.9514 -104.4637 304° West  Level Estimated
Sun 10:15:00 AM 23.0149 -104.5660 304° West  Level Estimated
Sun 10:16:00 AM 23.0782 -104.6684 304° West  Level Estimated
Sun 10:17:00 AM 23.1415 -104.7710 304° West  Level Estimated
Sun 10:18:00 AM 23.2047 -104.8736 304° West  Level Estimated
Sun 10:19:00 AM 23.2679 -104.9763 304° West  Level Estimated
Sun 10:20:00 AM 23.3309 -105.0792 304° West  Level Estimated
Sun 10:21:00 AM 23.3939 -105.1821 304° West  Level Estimated
Sun 10:22:00 AM 23.4569 -105.2851 304° West  Level Estimated
Sun 10:23:00 AM 23.5198 -105.3882 304° West  Level Estimated
Sun 10:24:00 AM 23.5826 -105.4914 304° West  Level Estimated
Sun 10:25:00 AM 23.6453 -105.5948 304° West  Level Estimated
Sun 10:26:00 AM 23.7080 -105.6982 304° West  Level Estimated
Sun 10:27:00 AM 23.7706 -105.8017 303° West  Level Estimated
Sun 10:28:00 AM 23.8332 -105.9053 303° West  Level Estimated
Sun 10:29:00 AM 23.8956 -106.0090 303° West  Level Estimated
Sun 10:30:00 AM 23.9580 -106.1128 303° West  Level Estimated
Sun 10:31:00 AM 24.0204 -106.2168 303° West  Level Estimated
Sun 10:32:00 AM 24.0826 -106.3208 303° West  Level Estimated
Sun 10:33:00 AM 24.1448 -106.4249 303° West  Level Estimated
Sun 10:34:00 AM 24.2069 -106.5291 303° West  Level Estimated
Sun 10:35:00 AM 24.2690 -106.6334 303° West  Level Estimated
Sun 10:36:00 AM 24.3310 -106.7378 303° West  Level Estimated
Sun 10:37:00 AM 24.3929 -106.8424 303° West  Level Estimated
Sun 10:38:00 AM 24.4547 -106.9470 303° West  Level Estimated
Sun 10:39:00 AM 24.5165 -107.0517 303° West  Level Estimated
Sun 10:40:00 AM 24.5781 -107.1566 303° West  Level Estimated
Sun 10:41:00 AM 24.6398 -107.2615 303° West  Level Estimated
Sun 10:42:00 AM 24.7013 -107.3665 303° West  Level Estimated
Sun 10:43:00 AM 24.7628 -107.4717 303° West  Level Estimated
Sun 10:44:00 AM 24.7645 -107.4747 303° West  Level Estimated
Sun 10:45:00 AM 24.7645 -107.4747 138° Southeast  Level Estimated
Sun 10:46:00 AM 24.7645 -107.4747 138° Southeast  Level Estimated
Sun 10:47:00 AM 24.7645 -107.4747 138° Southeast  Level Estimated
Sun 10:48:00 AM 24.7645 -107.4747 138° Southeast  Level Estimated
Sun 10:49:00 AM 24.7645 -107.4747 138° Southeast  Level Estimated
Sun 10:50:00 AM 24.7645 -107.4747 138° Southeast  Level Estimated
Sun 10:51:00 AM 24.7645 -107.4747 138° Southeast  Level Estimated
Sun 10:52:00 AM 24.7645 -107.4747 138° Southeast  Level Estimated
Sun 10:53:00 AM 24.7645 -107.4747 138° Southeast  Level Estimated
Sun 10:54:00 AM 24.7645 -107.4747 138° Southeast  Level Estimated
Sun 10:55:00 AM 24.7645 -107.4747 138° Southeast  Level Estimated
Sun 10:56:00 AM 24.7645 -107.4747 138° Southeast  Level Estimated
Sun 10:57:00 AM 24.7645 -107.4747 138° Southeast  Level Estimated
Sun 10:58:00 AM 24.7645 -107.4747 138° Southeast  Level Estimated
Sun 10:59:00 AM 24.7645 -107.4747 138° Southeast  Level Estimated

Login

Don't have an account? Register now (free) for customized features, flight alerts, and more!